Time;durP1;ratioP1;P1;durP2;ratioP2;P2;SDS_P1;SDS_P2;PMS_P1;PMS_P2;Temp;Humidity;BMP_temperature;BMP_pressure;BME280_temperature;BME280_humidity;BME280_pressure;Samples;Min_cycle;Max_cycle;Signal;HPM_P1;HPM_P2
2022/05/25 00:00:32;;;;;;;8.83;5.60;;;;;;;6.62;92.32;100044.16;1741981;82;21054;-69
2022/05/25 00:02:58;;;;;;;9.13;4.67;;;;;;;6.60;92.59;100048.56;1742208;82;21058;-69
2022/05/25 00:05:25;;;;;;;7.55;5.37;;;;;;;6.56;92.37;100046.48;1742083;82;21139;-68
2022/05/25 00:07:51;;;;;;;10.80;5.55;;;;;;;6.50;92.41;100051.39;1741975;82;21049;-69
2022/05/25 00:10:18;;;;;;;7.85;5.55;;;;;;;6.47;92.54;100051.46;1742351;82;21065;-69
2022/05/25 00:12:46;;;;;;;7.53;5.75;;;;;;;6.45;92.88;100053.70;1742180;81;21053;-70
2022/05/25 00:15:13;;;;;;;8.43;5.87;;;;;;;6.41;92.98;100057.27;1715451;82;21048;-71
2022/05/25 00:17:39;;;;;;;7.08;5.62;;;;;;;6.39;93.22;100066.44;1712645;83;21970;-69
2022/05/25 00:20:09;;;;;;;7.37;5.47;;;;;;;6.35;93.59;100061.31;1712685;83;21100;-68
2022/05/25 00:22:44;;;;;;;13.70;6.03;;;;;;;6.31;94.04;100067.06;1712693;83;21030;-69
2022/05/25 00:25:30;;;;;;;8.05;5.53;;;;;;;6.27;94.38;100061.48;1712795;83;21057;-70
2022/05/25 00:27:57;;;;;;;7.83;4.80;;;;;;;6.24;94.43;100066.78;1712553;83;21097;-69
2022/05/25 00:30:25;;;;;;;6.95;5.40;;;;;;;6.20;94.54;100063.80;1712580;83;21609;-70
2022/05/25 00:32:53;;;;;;;7.08;4.50;;;;;;;6.17;95.04;100067.80;1712658;83;21058;-70
2022/05/25 00:35:21;;;;;;;8.53;5.87;;;;;;;6.14;95.28;100063.47;1712679;83;21053;-70
2022/05/25 00:37:48;;;;;;;6.87;4.78;;;;;;;6.13;95.33;100066.98;1712931;83;21590;-69
2022/05/25 00:40:24;;;;;;;6.83;5.25;;;;;;;6.11;95.35;100070.53;1712679;83;21049;-71
2022/05/25 00:42:51;;;;;;;6.08;4.83;;;;;;;6.08;95.54;100067.08;1712787;83;21255;-69
2022/05/25 00:45:17;;;;;;;6.92;4.85;;;;;;;6.05;95.77;100067.15;1712848;83;21002;-70
2022/05/25 00:47:47;;;;;;;7.62;5.60;;;;;;;6.02;95.91;100063.27;1712784;83;21112;-69
2022/05/25 00:50:16;;;;;;;7.28;5.25;;;;;;;6.00;96.23;100068.96;1712929;83;21085;-69
2022/05/25 00:52:43;;;;;;;6.75;5.47;;;;;;;5.98;96.48;100064.66;1712756;83;21124;-69
2022/05/25 00:55:13;;;;;;;7.10;5.50;;;;;;;5.95;96.90;100068.20;1707287;83;21408;-70
2022/05/25 00:57:45;;;;;;;9.78;5.83;;;;;;;5.92;97.04;100076.08;1704826;84;21003;-69
2022/05/25 01:00:16;;;;;;;12.85;5.85;;;;;;;5.91;96.98;100074.33;1704597;84;21041;-70
2022/05/25 01:02:58;;;;;;;10.85;5.37;;;;;;;5.88;97.25;100069.17;1704771;84;21370;-69
2022/05/25 01:05:29;;;;;;;7.37;5.53;;;;;;;5.85;97.72;100069.24;1715536;82;21082;-69
2022/05/25 01:08:14;;;;;;;6.47;4.60;;;;;;;5.80;97.73;100073.70;1734312;82;21057;-69
2022/05/25 01:11:04;;;;;;;6.42;4.60;;;;;;;5.76;97.67;100074.19;1734016;82;21003;-70
2022/05/25 01:13:52;;;;;;;7.35;5.37;;;;;;;5.74;97.81;100076.41;1727719;82;21135;-69
2022/05/25 01:16:54;;;;;;;7.37;5.22;;;;;;;5.71;98.09;100077.34;1704958;84;21054;-69
2022/05/25 01:20:15;;;;;;;9.78;5.03;;;;;;;5.68;98.47;100076.95;1703988;84;21108;-71
2022/05/25 01:23:03;;;;;;;9.43;5.50;;;;;;;5.67;99.09;100084.80;1704779;84;22011;-70
2022/05/25 01:25:58;;;;;;;9.43;6.35;;;;;;;5.64;99.40;100078.34;1704735;83;21042;-69
2022/05/25 01:28:48;;;;;;;9.78;6.17;;;;;;;5.62;99.57;100083.58;1704867;84;21034;-69
2022/05/25 01:31:19;;;;;;;8.33;5.78;;;;;;;5.61;99.59;100095.34;1705042;84;21109;-70
2022/05/25 01:33:56;;;;;;;10.03;6.35;;;;;;;5.59;99.61;100092.78;1707805;83;21117;-70
2022/05/25 01:37:00;;;;;;;7.67;5.40;;;;;;;5.60;99.92;100097.56;1704744;84;21264;-69
2022/05/25 01:39:31;;;;;;;10.95;6.95;;;;;;;5.59;99.80;100096.70;1704654;84;21065;-70
2022/05/25 01:42:03;;;;;;;11.43;6.62;;;;;;;5.59;99.75;100104.55;1705089;84;21116;-70
2022/05/25 01:44:40;;;;;;;10.53;6.78;;;;;;;5.57;99.83;100106.31;1704953;84;21097;-70
2022/05/25 01:47:11;;;;;;;9.20;5.90;;;;;;;5.55;99.63;100099.40;1705032;84;21070;-69
2022/05/25 01:49:55;;;;;;;17.65;6.35;;;;;;;5.53;99.61;100106.39;1705264;83;21210;-69
2022/05/25 01:52:27;;;;;;;9.15;6.50;;;;;;;5.52;99.86;100107.27;1704933;84;21058;-69
2022/05/25 01:54:56;;;;;;;11.05;6.20;;;;;;;5.49;100.00;100105.56;1708486;83;21025;-69
2022/05/25 01:57:26;;;;;;;15.95;6.85;;;;;;;5.45;100.00;100102.16;1712889;83;21068;-69
2022/05/25 01:59:52;;;;;;;8.68;6.90;;;;;;;5.43;100.00;100104.38;1712855;83;21480;-69
2022/05/25 02:05:09;;;;;;;10.48;6.45;;;;;;;5.39;100.00;100102.70;1712721;83;21101;-70
2022/05/25 02:07:57;;;;;;;10.45;6.35;;;;;;;5.38;100.00;100104.87;1712895;83;21073;-69
2022/05/25 02:10:47;;;;;;;10.18;6.78;;;;;;;5.38;100.00;100107.48;1712771;83;21029;-69
2022/05/25 02:13:32;;;;;;;9.23;6.25;;;;;;;5.37;100.00;100108.39;1712690;83;21046;-69
2022/05/25 02:16:32;;;;;;;8.55;6.22;;;;;;;5.36;100.00;100109.26;1712637;83;21450;-69
2022/05/25 02:19:16;;;;;;;10.38;6.80;;;;;;;5.35;100.00;100103.63;1712447;83;21033;-70
2022/05/25 02:21:55;;;;;;;10.58;6.50;;;;;;;5.35;100.00;100114.08;1712473;83;21041;-70
2022/05/25 02:24:45;;;;;;;13.55;7.10;;;;;;;5.38;100.00;100110.10;1712530;83;20998;-70
2022/05/25 02:27:21;;;;;;;9.10;6.00;;;;;;;5.38;100.00;100117.94;1712865;83;21080;-68
2022/05/25 02:29:49;;;;;;;10.88;6.17;;;;;;;5.38;100.00;100116.21;1712706;83;21883;-69
2022/05/25 02:32:24;;;;;;;8.83;6.05;;;;;;;5.43;100.00;100116.14;1712778;83;21022;-70
2022/05/25 02:34:52;;;;;;;13.30;7.25;;;;;;;5.45;100.00;100116.53;1712860;83;21038;-69
2022/05/25 02:37:22;;;;;;;16.17;7.80;;;;;;;5.50;100.00;100117.76;1712682;83;21562;-68
2022/05/25 02:39:52;;;;;;;13.48;8.23;;;;;;;5.54;100.00;100116.80;1685321;83;21057;-69
2022/05/25 02:42:19;;;;;;;12.23;7.58;;;;;;;5.60;100.00;100119.31;1684473;83;21206;-69
2022/05/25 02:44:45;;;;;;;13.15;8.40;;;;;;;5.70;100.00;100123.08;1712568;83;21029;-68
2022/05/25 02:47:13;;;;;;;17.73;8.93;;;;;;;5.76;100.00;100123.84;1712995;83;21061;-70
2022/05/25 02:49:40;;;;;;;16.35;8.58;;;;;;;5.86;100.00;100124.53;1712694;83;21124;-69
2022/05/25 02:52:08;;;;;;;19.62;8.73;;;;;;;5.95;100.00;100128.32;1712970;83;21041;-70
2022/05/25 02:54:36;;;;;;;13.32;7.92;;;;;;;6.03;100.00;100128.20;1711253;83;21795;-69
2022/05/25 02:57:04;;;;;;;13.85;8.25;;;;;;;6.14;100.00;100137.12;1704801;84;21066;-70
2022/05/25 02:59:30;;;;;;;11.00;7.28;;;;;;;6.26;100.00;100136.92;1704838;84;21069;-69
2022/05/25 03:01:57;;;;;;;9.50;6.62;;;;;;;6.37;100.00;100134.92;1704849;84;21061;-69
2022/05/25 03:04:24;;;;;;;12.95;7.28;;;;;;;6.53;100.00;100139.87;1704627;83;21054;-69
2022/05/25 03:06:51;;;;;;;12.68;7.30;;;;;;;6.65;100.00;100133.95;1704831;84;21158;-69
2022/05/25 03:09:18;;;;;;;10.48;7.35;;;;;;;6.79;100.00;100131.03;1704855;84;21038;-69
2022/05/25 03:11:45;;;;;;;12.43;7.50;;;;;;;6.94;100.00;100135.92;1704835;83;21519;-72
2022/05/25 03:14:12;;;;;;;11.35;7.55;;;;;;;7.09;100.00;100124.71;1704749;84;21049;-71
2022/05/25 03:16:38;;;;;;;14.63;7.67;;;;;;;7.27;100.00;100137.80;1704861;84;21175;-69
2022/05/25 03:19:06;;;;;;;15.18;7.45;;;;;;;7.44;100.00;100135.66;1704995;84;22018;-70
2022/05/25 03:21:33;;;;;;;18.52;9.13;;;;;;;7.64;99.56;100139.12;1704950;83;20991;-69
2022/05/25 03:24:00;;;;;;;28.27;14.03;;;;;;;7.85;98.69;100143.41;1705063;84;21029;-69
2022/05/25 03:26:26;;;;;;;30.35;14.35;;;;;;;8.06;97.44;100138.91;1704938;83;21613;-68
2022/05/25 03:28:53;;;;;;;28.17;13.70;;;;;;;8.29;96.33;100145.30;1705001;84;21479;-70
2022/05/25 03:31:20;;;;;;;31.12;13.43;;;;;;;8.53;94.98;100143.78;1704745;84;21153;-70
2022/05/25 03:33:48;;;;;;;27.37;12.68;;;;;;;8.77;93.52;100140.91;1704665;84;21085;-69
2022/05/25 03:36:14;;;;;;;31.17;12.50;;;;;;;9.02;91.94;100140.58;1704831;84;21109;-69
2022/05/25 03:38:41;;;;;;;27.07;12.95;;;;;;;9.29;90.61;100139.30;1704857;84;21042;-70
2022/05/25 03:41:08;;;;;;;24.43;12.15;;;;;;;9.56;88.92;100136.25;1704999;84;21136;-69
2022/05/25 03:43:37;;;;;;;23.70;11.38;;;;;;;9.85;87.41;100132.66;1704747;84;21543;-69
2022/05/25 03:46:04;;;;;;;22.42;11.40;;;;;;;10.19;85.93;100138.51;1704560;84;21057;-68
2022/05/25 03:48:31;;;;;;;26.02;11.05;;;;;;;10.55;84.43;100134.20;1704928;84;21034;-69
2022/05/25 03:50:58;;;;;;;21.42;10.55;;;;;;;10.91;83.03;100135.91;1704762;84;21126;-69
2022/05/25 03:53:24;;;;;;;23.27;11.28;;;;;;;11.30;80.97;100136.59;1704792;84;21038;-69
2022/05/25 03:55:52;;;;;;;22.77;11.22;;;;;;;11.68;79.12;100136.80;1712058;83;21463;-70
2022/05/25 03:58:18;;;;;;;19.27;10.95;;;;;;;12.01;76.70;100133.69;1718052;83;21134;-70
2022/05/25 04:00:45;;;;;;;22.95;11.40;;;;;;;12.31;74.94;100137.66;1718095;83;21056;-69
2022/05/25 04:03:14;;;;;;;20.75;12.03;;;;;;;12.66;73.81;100131.72;1718154;83;21382;-70
2022/05/25 04:05:41;;;;;;;23.30;11.35;;;;;;;13.14;72.44;100135.19;1718256;83;21060;-69
2022/05/25 04:08:08;;;;;;;24.32;11.35;;;;;;;13.70;70.09;100128.56;1718226;83;21266;-70
2022/05/25 04:10:34;;;;;;;23.12;11.57;;;;;;;14.24;67.17;100134.60;1717959;83;21029;-69
2022/05/25 04:13:01;;;;;;;24.87;11.22;;;;;;;14.70;64.91;100134.88;1718561;83;21498;-70
2022/05/25 04:15:30;;;;;;;22.00;11.10;;;;;;;15.13;62.42;100137.80;1718164;83;21053;-70
2022/05/25 04:17:57;;;;;;;20.82;10.72;;;;;;;15.57;60.97;100137.07;1718338;83;22081;-70
2022/05/25 04:20:24;;;;;;;18.25;10.18;;;;;;;16.02;59.31;100139.83;1718301;83;21260;-69
2022/05/25 04:22:51;;;;;;;21.15;8.50;;;;;;;16.44;58.17;100153.65;1718270;83;21013;-71
2022/05/25 04:25:20;;;;;;;13.05;7.92;;;;;;;16.83;56.58;100150.84;1718175;83;21136;-71
2022/05/25 04:27:49;;;;;;;11.68;6.37;;;;;;;17.18;54.50;100155.73;1718100;83;21112;-70
2022/05/25 04:30:18;;;;;;;8.53;5.25;;;;;;;17.43;51.25;100156.81;1718149;83;21073;-71
2022/05/25 04:32:45;;;;;;;8.50;4.83;;;;;;;17.55;48.60;100156.88;1718119;83;21490;-69
2022/05/25 04:35:12;;;;;;;8.88;5.28;;;;;;;17.67;47.02;100157.88;1717961;83;21061;-70
2022/05/25 04:37:57;;;;;;;10.95;4.35;;;;;;;17.85;46.16;100158.95;1718194;83;21026;-70
2022/05/25 04:40:40;;;;;;;8.25;4.33;;;;;;;18.14;45.37;100158.34;1718168;83;21093;-69
2022/05/25 04:43:12;;;;;;;6.20;3.90;;;;;;;18.56;42.61;100164.33;1718566;83;21092;-70
2022/05/25 04:45:40;;;;;;;6.75;4.20;;;;;;;18.88;41.68;100155.91;1718373;83;21120;-71
2022/05/25 04:48:07;;;;;;;6.70;3.87;;;;;;;19.16;41.42;100152.10;1718509;83;21017;-69
2022/05/25 04:50:36;;;;;;;8.53;4.80;;;;;;;19.50;40.21;100150.48;1718298;83;21048;-69
2022/05/25 04:53:03;;;;;;;9.20;4.35;;;;;;;19.79;38.62;100153.70;1718410;83;21158;-70
2022/05/25 04:58:26;;;;;;;8.60;4.33;;;;;;;20.31;37.04;100156.88;1704923;84;21142;-70
2022/05/25 05:00:54;;;;;;;5.03;3.52;;;;;;;20.53;35.75;100152.06;1704287;84;21169;-70
2022/05/25 05:03:22;;;;;;;5.90;3.83;;;;;;;20.76;35.73;100157.47;1704807;84;21089;-70
2022/05/25 05:05:51;;;;;;;7.40;3.60;;;;;;;21.02;34.63;100154.03;1704542;84;21054;-71
2022/05/25 05:08:19;;;;;;;5.20;3.25;;;;;;;21.25;34.68;100158.38;1704689;83;21062;-70
2022/05/25 05:10:46;;;;;;;8.28;4.60;;;;;;;21.45;33.53;100155.45;1704494;84;21230;-70
2022/05/25 05:13:12;;;;;;;9.20;3.98;;;;;;;21.58;33.62;100152.63;1706944;82;21124;-72
2022/05/25 05:15:48;;;;;;;5.80;3.75;;;;;;;21.78;33.52;100154.97;1734098;82;21135;-71
2022/05/25 05:18:17;;;;;;;8.33;4.03;;;;;;;21.96;32.48;100160.13;1734247;82;21078;-69
2022/05/25 05:21:01;;;;;;;12.43;3.83;;;;;;;22.18;31.98;100156.98;1692586;84;22210;-69
2022/05/25 05:23:28;;;;;;;6.00;3.60;;;;;;;22.44;31.10;100153.93;1720677;82;21155;-70
2022/05/25 05:25:54;;;;;;;5.15;3.08;;;;;;;22.61;31.50;100156.86;1734094;82;21070;-71
2022/05/25 05:28:30;;;;;;;6.80;3.65;;;;;;;22.75;30.41;100152.97;1734416;82;21066;-71
2022/05/25 05:30:59;;;;;;;5.25;3.27;;;;;;;22.91;29.91;100152.94;1734166;82;21045;-71
2022/05/25 05:33:27;;;;;;;9.08;4.10;;;;;;;23.02;30.04;100152.87;1734126;82;21654;-70
2022/05/25 05:36:07;;;;;;;5.12;3.22;;;;;;;23.12;29.57;100156.45;1734055;82;21174;-71
2022/05/25 05:38:35;;;;;;;12.47;3.87;;;;;;;23.34;29.43;100161.23;1730422;82;21058;-70
2022/05/25 05:41:02;;;;;;;6.78;3.58;;;;;;;23.34;29.43;100161.23;1713201;82;21062;-71
2022/05/25 05:43:29;;;;;;;8.48;3.52;;;;;;;23.47;29.56;100160.48;1734151;82;21041;-70
2022/05/25 05:45:56;;;;;;;5.30;3.20;;;;;;;23.69;29.47;100155.83;1734171;82;21054;-71
2022/05/25 05:48:26;;;;;;;6.87;3.50;;;;;;;23.96;29.65;100156.00;1734297;82;21302;-70
2022/05/25 05:50:56;;;;;;;9.13;3.30;;;;;;;24.29;29.10;100157.86;1734527;82;21074;-70
2022/05/25 05:53:24;;;;;;;12.88;3.95;;;;;;;24.56;28.57;100157.63;1734416;82;21576;-71
2022/05/25 05:55:50;;;;;;;6.03;3.27;;;;;;;24.74;28.40;100159.91;1737315;82;21101;-71
2022/05/25 05:58:18;;;;;;;4.17;3.17;;;;;;;25.11;27.94;100155.83;1747984;82;21009;-70
2022/05/25 06:00:45;;;;;;;40.60;5.20;;;;;;;25.35;27.18;100154.95;1747914;82;21143;-70
2022/05/25 06:03:14;;;;;;;5.70;2.90;;;;;;;25.39;26.87;100153.66;1747991;82;21084;-71
2022/05/25 06:05:45;;;;;;;6.50;2.72;;;;;;;25.49;27.01;100157.12;1748035;82;21046;-71
2022/05/25 06:08:18;;;;;;;5.90;2.70;;;;;;;25.65;26.42;100157.31;1748570;82;21069;-71
2022/05/25 06:10:45;;;;;;;3.67;2.35;;;;;;;25.83;26.78;100156.45;1748021;82;21046;-71
2022/05/25 06:13:13;;;;;;;3.67;2.33;;;;;;;25.92;25.97;100155.03;1748397;82;21146;-70
2022/05/25 06:21:09;;;;;;;5.62;2.65;;;;;;;26.56;24.71;100159.76;1748136;82;21116;-70
2022/05/25 06:23:36;;;;;;;3.65;2.45;;;;;;;26.49;24.22;100162.72;1748532;82;21049;-70
2022/05/25 06:26:04;;;;;;;7.05;2.98;;;;;;;26.41;23.91;100160.47;1748111;82;21791;-70
2022/05/25 06:28:30;;;;;;;6.75;2.47;;;;;;;26.45;23.99;100165.39;1748425;82;21057;-71
2022/05/25 06:30:57;;;;;;;8.10;2.95;;;;;;;26.64;23.85;100164.86;1747785;82;21089;-70
2022/05/25 06:33:24;;;;;;;4.08;2.60;;;;;;;26.80;24.42;100166.30;1748175;82;21084;-71
2022/05/25 06:35:51;;;;;;;5.47;2.30;;;;;;;26.92;23.92;100162.33;1747928;82;21608;-70
2022/05/25 06:38:18;;;;;;;3.50;1.90;;;;;;;27.14;23.39;100162.74;1748217;82;22220;-70
2022/05/25 06:40:46;;;;;;;2.72;2.05;;;;;;;27.31;22.35;100160.95;1747886;82;21064;-70
2022/05/25 06:43:13;;;;;;;6.03;2.37;;;;;;;27.50;22.38;100155.28;1748197;82;21041;-70
2022/05/25 06:45:41;;;;;;;4.78;2.22;;;;;;;27.57;22.18;100153.59;1747788;82;21030;-70
2022/05/25 06:48:08;;;;;;;4.80;2.47;;;;;;;27.54;22.21;100158.52;1748235;82;21112;-70
2022/05/25 06:50:35;;;;;;;6.00;2.10;;;;;;;27.49;22.81;100158.14;1748280;82;21025;-70
2022/05/25 06:53:03;;;;;;;5.10;2.35;;;;;;;27.45;22.68;100160.34;1748108;82;21073;-72
2022/05/25 06:55:30;;;;;;;3.42;2.30;;;;;;;27.56;22.84;100159.16;1748220;82;21037;-69
2022/05/25 06:57:56;;;;;;;4.33;2.30;;;;;;;27.66;21.60;100165.28;1748008;81;21072;-70
2022/05/25 07:00:25;;;;;;;4.78;2.20;;;;;;;27.65;22.13;100160.88;1747927;82;21546;-72
2022/05/25 07:02:52;;;;;;;6.50;2.50;;;;;;;27.71;22.62;100160.73;1748248;82;21267;-70
2022/05/25 07:05:19;;;;;;;3.67;2.00;;;;;;;27.78;22.12;100165.29;1747995;82;21086;-72
2022/05/25 07:07:45;;;;;;;6.03;1.87;;;;;;;27.89;21.55;100164.67;1748165;82;21044;-70
2022/05/25 07:10:11;;;;;;;2.55;1.52;;;;;;;27.60;20.80;100166.78;1748074;82;21053;-71
2022/05/25 07:12:39;;;;;;;8.98;2.17;;;;;;;27.18;21.05;100170.36;1748206;82;20998;-71
2022/05/25 07:15:07;;;;;;;5.87;1.80;;;;;;;27.31;21.39;100174.00;1722359;82;21265;-71
2022/05/25 07:17:34;;;;;;;9.13;2.02;;;;;;;27.59;21.21;100172.37;1718317;83;21065;-71
2022/05/25 07:20:05;;;;;;;4.95;2.20;;;;;;;27.83;21.45;100167.02;1718590;83;21157;-71
2022/05/25 07:22:33;;;;;;;2.95;1.55;;;;;;;27.97;20.68;100161.95;1718207;83;21041;-70
2022/05/25 07:25:00;;;;;;;2.35;1.60;;;;;;;28.07;20.70;100165.35;1718391;83;21593;-70
2022/05/25 07:27:27;;;;;;;5.00;2.20;;;;;;;27.95;19.86;100172.09;1718207;83;21180;-72
2022/05/25 07:29:53;;;;;;;3.67;1.55;;;;;;;27.25;20.48;100170.59;1718042;83;22262;-70
2022/05/25 07:32:19;;;;;;;3.20;1.85;;;;;;;26.83;20.50;100176.80;1719656;82;21057;-71
2022/05/25 07:34:57;;;;;;;3.92;1.45;;;;;;;26.81;20.52;100168.02;1747963;82;21059;-71
2022/05/25 07:37:23;;;;;;;1.92;1.07;;;;;;;27.19;20.11;100163.96;1747037;82;21077;-70
2022/05/25 07:40:01;;;;;;;3.80;1.70;;;;;;;27.52;19.75;100160.53;1748151;82;21231;-70
2022/05/25 07:42:29;;;;;;;1.55;1.40;;;;;;;27.53;19.46;100156.80;1748027;82;21526;-71
2022/05/25 07:44:58;;;;;;;3.62;1.60;;;;;;;27.09;19.32;100158.34;1748001;82;21038;-70
2022/05/25 07:47:26;;;;;;;4.95;1.95;;;;;;;26.66;20.36;100162.34;1748171;82;21570;-71
2022/05/25 07:49:52;;;;;;;2.60;1.70;;;;;;;26.30;20.48;100164.30;1748486;82;21127;-71
2022/05/25 07:52:20;;;;;;;6.22;1.87;;;;;;;26.48;20.89;100162.39;1748515;82;21069;-71
2022/05/25 07:54:47;;;;;;;3.35;1.70;;;;;;;26.69;20.47;100158.50;1748146;82;21110;-70
2022/05/25 07:57:14;;;;;;;6.80;1.60;;;;;;;26.69;21.04;100162.55;1748007;81;21037;-71
2022/05/25 07:59:40;;;;;;;3.27;1.20;;;;;;;27.06;20.75;100151.41;1748072;82;21018;-71
2022/05/25 08:07:49;;;;;;;3.55;1.60;;;;;;;27.27;19.62;100163.16;1747990;82;21085;-70
2022/05/25 08:10:18;;;;;;;2.72;1.92;;;;;;;27.03;19.85;100165.73;1748066;82;22292;-70
2022/05/25 08:12:45;;;;;;;5.50;1.50;;;;;;;26.65;20.61;100162.02;1747750;82;21104;-71
2022/05/25 08:15:14;;;;;;;4.70;1.70;;;;;;;26.60;20.98;100169.75;1747844;82;21632;-71
2022/05/25 08:17:40;;;;;;;5.37;1.92;;;;;;;26.60;20.63;100168.41;1747897;82;21138;-70
2022/05/25 08:20:10;;;;;;;2.37;1.50;;;;;;;26.55;20.87;100168.88;1748290;82;21046;-70
2022/05/25 08:22:37;;;;;;;3.58;1.77;;;;;;;26.71;20.61;100163.21;1748029;82;26609;-70
2022/05/25 08:25:06;;;;;;;10.98;2.72;;;;;;;26.91;20.27;100162.48;1747955;82;21077;-71
2022/05/25 08:27:33;;;;;;;2.52;1.77;;;;;;;27.26;20.38;100164.16;1747899;82;21044;-71
2022/05/25 08:29:59;;;;;;;3.75;1.90;;;;;;;27.73;19.39;100166.30;1747951;82;21125;-70
2022/05/25 08:32:25;;;;;;;2.83;1.70;;;;;;;28.07;18.76;100169.41;1748192;82;21049;-70
2022/05/25 08:34:52;;;;;;;26.77;3.98;;;;;;;28.34;19.45;100172.77;1747924;82;21089;-70
2022/05/25 08:37:18;;;;;;;2.27;1.50;;;;;;;28.71;18.97;100167.30;1748046;82;21108;-71
2022/05/25 08:39:45;;;;;;;3.25;1.90;;;;;;;29.19;18.49;100160.03;1748146;82;21065;-70
2022/05/25 08:42:15;;;;;;;2.17;1.82;;;;;;;29.51;17.80;100163.08;1747890;82;21079;-71
2022/05/25 08:44:42;;;;;;;7.85;1.90;;;;;;;29.60;17.71;100155.73;1748055;82;21081;-71
2022/05/25 08:47:12;;;;;;;3.08;1.62;;;;;;;29.62;17.19;100153.69;1748173;82;21089;-69
2022/05/25 08:49:42;;;;;;;8.40;1.80;;;;;;;29.64;17.61;100147.58;1747948;81;21029;-71
2022/05/25 08:52:23;;;;;;;2.05;1.70;;;;;;;29.81;17.03;100151.88;1748226;82;21041;-72
2022/05/25 08:54:50;;;;;;;2.77;1.60;;;;;;;29.80;17.91;100147.48;1748094;82;21367;-70
2022/05/25 08:57:29;;;;;;;3.50;1.70;;;;;;;30.07;18.00;100147.92;1741494;81;21105;-70
2022/05/25 09:00:10;;;;;;;5.50;1.50;;;;;;;30.36;17.27;100147.70;1734099;82;21038;-70
2022/05/25 09:03:04;;;;;;;2.35;1.70;;;;;;;30.43;17.35;100150.00;1733988;82;21597;-71
2022/05/25 09:05:42;;;;;;;35.08;5.62;;;;;;;30.69;17.10;100146.33;1734070;82;21015;-71
2022/05/25 09:11:44;;;;;;;2.00;1.60;;;;;;;31.01;16.42;100140.17;1778542;79;22716;-71
2022/05/25 09:14:31;;;;;;;2.58;1.70;;;;;;;30.90;16.86;100148.84;1747350;82;22240;-70
2022/05/25 09:16:59;;;;;;;7.47;2.08;;;;;;;30.50;16.87;100146.34;1748147;82;21797;-70
2022/05/25 09:19:31;;;;;;;2.65;1.92;;;;;;;30.50;16.87;100146.34;1748127;82;21303;-72
2022/05/25 09:22:02;;;;;;;3.02;1.80;;;;;;;30.37;17.18;100137.16;1748263;82;21054;-71
2022/05/25 09:24:30;;;;;;;3.87;1.95;;;;;;;30.41;16.93;100137.12;1748230;81;21005;-72
2022/05/25 09:26:57;;;;;;;8.13;2.20;;;;;;;30.41;16.93;100137.12;1748072;82;21088;-73
2022/05/25 09:29:24;;;;;;;3.05;2.02;;;;;;;30.26;16.91;100133.88;1681448;82;21600;-70
2022/05/25 09:31:59;;;;;;;3.58;2.00;;;;;;;29.41;17.75;100140.26;1748113;82;21032;-70
2022/05/25 09:35:00;;;;;;;6.70;1.92;;;;;;;29.41;17.75;100140.26;1745543;82;21534;-70
2022/05/25 09:37:40;;;;;;;3.95;2.00;;;;;;;29.44;17.50;100134.46;1747748;82;21092;-71
2022/05/25 09:40:14;;;;;;;5.55;1.92;;;;;;;29.56;16.73;100136.77;1747983;82;21077;-70
2022/05/25 09:42:41;;;;;;;2.55;1.90;;;;;;;29.64;17.38;100123.16;1746528;82;22138;-71
2022/05/25 09:45:13;;;;;;;3.60;1.98;;;;;;;29.53;16.72;100119.50;1747984;82;21050;-71
2022/05/25 09:47:45;;;;;;;5.75;1.90;;;;;;;29.49;17.33;100123.94;1748165;82;21039;-71
2022/05/25 09:50:33;;;;;;;4.50;1.95;;;;;;;29.33;18.09;100122.66;1748165;82;21064;-70
2022/05/25 09:53:06;;;;;;;3.90;1.85;;;;;;;29.37;17.98;100115.86;1748176;82;21045;-71
2022/05/25 09:55:46;;;;;;;4.47;1.60;;;;;;;29.76;18.37;100111.39;1719135;82;22081;-72
2022/05/25 09:58:25;;;;;;;7.22;2.08;;;;;;;29.92;17.72;100113.96;1717950;82;21061;-70
2022/05/25 10:00:59;;;;;;;27.50;3.85;;;;;;;29.92;17.72;100113.96;1747708;81;21058;-71
2022/05/25 10:03:37;;;;;;;2.55;1.57;;;;;;;29.83;16.92;100114.53;1747231;82;21037;-71
2022/05/25 10:06:25;;;;;;;5.97;2.12;;;;;;;29.49;17.08;100121.23;1747808;82;21601;-71
2022/05/25 10:09:16;;;;;;;2.12;1.80;;;;;;;29.21;16.90;100120.87;1747901;82;21151;-70
2022/05/25 10:11:46;;;;;;;3.00;2.10;;;;;;;28.64;17.50;100121.95;1746863;82;21085;-70
2022/05/25 10:14:29;;;;;;;4.62;2.08;;;;;;;28.43;18.18;100118.41;1733305;81;21553;-70
2022/05/25 10:17:00;;;;;;;5.10;2.33;;;;;;;28.33;18.10;100124.53;1718207;83;21197;-73
2022/05/25 10:19:27;;;;;;;4.05;2.15;;;;;;;28.19;17.82;100129.30;1717805;83;21073;-70
2022/05/25 10:21:58;;;;;;;4.08;2.40;;;;;;;28.18;18.19;100125.75;1717801;83;22040;-71
2022/05/25 10:24:32;;;;;;;5.12;2.35;;;;;;;28.43;17.71;100118.92;1717806;83;21049;-70
2022/05/25 10:27:01;;;;;;;7.40;2.30;;;;;;;28.76;18.12;100112.06;1714320;83;21521;-70
2022/05/25 10:38:28;;;;;;;2.87;1.90;;;;;;;29.18;18.20;100112.27;1694587;83;21064;-69
2022/05/25 10:41:37;;;;;;;3.30;1.80;;;;;;;29.33;17.26;100102.32;1717691;83;21064;-71
2022/05/25 10:43:30;;;;;;;4.15;2.20;;;;;;;29.32;18.14;100093.03;1713412;83;21604;-69
2022/05/25 10:46:00;;;;;;;3.08;1.80;;;;;;;29.17;17.32;100087.02;1717901;83;21048;-71
2022/05/25 10:48:52;;;;;;;4.28;2.52;;;;;;;28.80;17.59;100090.38;1717585;83;21182;-69
2022/05/25 10:51:33;;;;;;;4.20;2.05;;;;;;;28.52;18.56;100092.17;1717761;83;21073;-72
2022/05/25 10:57:44;;;;;;;4.97;2.27;;;;;;;29.01;18.47;100082.98;1718025;83;21163;-70
2022/05/25 11:00:21;;;;;;;3.52;1.92;;;;;;;29.27;17.78;100090.34;1717842;83;21585;-70
2022/05/25 11:03:09;;;;;;;6.58;2.10;;;;;;;29.43;17.81;100083.95;1717349;83;21114;-71
2022/05/25 11:05:55;;;;;;;5.78;2.40;;;;;;;29.59;17.48;100080.28;1717081;83;21569;-72
2022/05/25 11:08:49;;;;;;;3.60;2.12;;;;;;;29.63;17.26;100080.74;1717658;83;21061;-70
2022/05/25 11:11:55;;;;;;;5.47;2.30;;;;;;;29.88;17.65;100074.11;1716824;83;21139;-70
2022/05/25 11:15:05;;;;;;;9.48;2.47;;;;;;;29.99;16.69;100071.99;1734893;82;21049;-72
2022/05/25 11:17:53;;;;;;;3.42;2.05;;;;;;;29.44;16.94;100073.42;1748208;82;21540;-72
2022/05/25 11:20:44;;;;;;;6.20;1.80;;;;;;;28.71;17.19;100086.02;1747805;82;21054;-71
2022/05/25 12:18:57;;;;;;;5.90;2.40;;;;;;;27.28;19.67;100042.34;1831607;77;21984;-90
2022/05/25 12:21:49;;;;;;;4.53;2.10;;;;;;;27.27;19.25;100041.50;1741829;82;21443;-92
2022/05/25 12:24:21;;;;;;;5.85;2.12;;;;;;;27.31;19.37;100032.05;1727537;81;21252;-91
2022/05/25 12:26:47;;;;;;;5.08;2.10;;;;;;;27.39;19.66;100029.84;1705300;81;21062;-90
2022/05/25 12:29:39;;;;;;;3.70;2.37;;;;;;;27.36;19.96;100021.57;1705238;81;22243;-90
2022/05/25 12:32:07;;;;;;;22.60;3.45;;;;;;;27.35;19.56;100025.27;1757732;79;20952;-91
2022/05/25 12:34:47;;;;;;;4.35;2.22;;;;;;;27.35;19.59;100017.16;1746894;80;21027;-90
2022/05/25 12:37:28;;;;;;;2.75;2.33;;;;;;;27.28;19.01;100016.14;1768506;79;21143;-93
2022/05/25 12:40:00;;;;;;;6.40;2.90;;;;;;;27.12;19.32;100017.45;1761289;78;21029;-92
2022/05/25 12:42:33;;;;;;;12.18;4.08;;;;;;;26.88;19.80;100020.45;1748442;80;21043;-92
2022/05/25 12:51:06;;;;;;;10.55;3.20;;;;;;;26.25;19.44;100020.84;1761992;78;21200;-93
2022/05/25 12:53:41;;;;;;;2.77;1.82;;;;;;;25.99;20.25;100018.17;1782480;77;21114;-92
2022/05/25 12:56:19;;;;;;;2.33;1.50;;;;;;;25.75;20.20;100019.16;1803296;77;21538;-91
2022/05/25 12:58:51;;;;;;;5.28;2.10;;;;;;;25.51;20.15;100017.14;1803720;77;21153;-90
2022/05/25 13:01:33;;;;;;;8.10;2.35;;;;;;;25.37;20.67;100011.44;1809587;77;21044;-92
2022/05/25 13:04:12;;;;;;;;;;;;;;;25.28;20.44;100009.16;1815858;77;21172;-92
2022/05/25 13:06:49;;;;;;;4.92;1.77;;;;;;;24.97;20.17;100022.15;1800384;77;20226;-90
2022/05/25 13:09:43;;;;;;;29.40;4.05;;;;;;;24.79;20.63;100014.88;1813965;79;21015;-90
2022/05/25 13:12:43;;;;;;;46.68;6.83;;;;;;;24.65;19.94;100023.48;1810053;77;20998;-92
2022/05/25 13:15:21;;;;;;;5.17;2.08;;;;;;;24.51;20.63;100015.91;1819218;79;21016;-93
2022/05/25 13:17:56;;;;;;;3.80;2.10;;;;;;;24.45;21.29;100019.48;1819028;77;21169;-92
2022/05/25 13:20:47;;;;;;;3.98;2.05;;;;;;;24.48;21.00;100023.28;1801118;77;21005;-92
2022/05/25 13:23:54;;;;;;;3.75;2.00;;;;;;;24.49;21.04;100006.63;1818939;77;21017;-93